createdAt,value
2023-03-06T00:00:10.936Z,4.3
2023-03-06T00:01:11.142Z,4.3
2023-03-06T00:02:09.807Z,4.3
2023-03-06T00:03:11.759Z,4.3
2023-03-06T00:04:11.746Z,4.3
2023-03-06T00:05:10.934Z,4.2
2023-03-06T00:06:10.976Z,4.3
2023-03-06T00:07:10.951Z,4.4
2023-03-06T00:08:11.699Z,4.4
2023-03-06T00:10:11.650Z,4.4
2023-03-06T00:11:10.956Z,4.5
2023-03-06T00:12:11.401Z,4.4
2023-03-06T00:13:10.940Z,4.4
2023-03-06T00:14:11.283Z,4.4
2023-03-06T00:15:11.247Z,4.4
2023-03-06T00:16:11.526Z,4.2
2023-03-06T00:18:11.032Z,4.4
2023-03-06T00:19:11.668Z,4.4
2023-03-06T00:21:11.584Z,4.3
2023-03-06T00:22:10.952Z,4.4
2023-03-06T00:23:11.364Z,4.3
2023-03-06T00:24:10.964Z,4.4
2023-03-06T00:25:11.301Z,4.3
2023-03-06T00:26:11.607Z,4.3
2023-03-06T00:27:10.943Z,4.3
2023-03-06T00:28:10.940Z,4.2
2023-03-06T00:29:11.611Z,4.2
2023-03-06T00:30:09.809Z,4.3
2023-03-06T00:31:10.968Z,4.4
2023-03-06T00:32:11.032Z,4.4
2023-03-06T00:33:10.941Z,4.4
2023-03-06T00:34:10.943Z,4.3
2023-03-06T00:35:10.931Z,4.1
2023-03-06T00:36:10.958Z,4.1
2023-03-06T00:37:11.342Z,4.3
2023-03-06T00:38:10.942Z,4.4
2023-03-06T00:39:10.935Z,4.4
2023-03-06T00:40:09.812Z,4.4
2023-03-06T00:41:11.045Z,4.3
2023-03-06T00:42:10.948Z,4.2
2023-03-06T00:43:11.609Z,3.9
2023-03-06T00:44:11.617Z,4
2023-03-06T00:46:11.524Z,4.3
2023-03-06T00:47:11.769Z,4.3
2023-03-06T00:48:10.927Z,4.3
2023-03-06T00:50:10.941Z,4.3
2023-03-06T00:51:12.036Z,4.4
2023-03-06T00:52:11.548Z,4.4
2023-03-06T00:53:11.409Z,4.2
2023-03-06T00:54:10.931Z,4.3
2023-03-06T00:55:10.938Z,4.3
2023-03-06T00:56:11.571Z,4.2
2023-03-06T00:58:10.935Z,4
2023-03-06T00:59:10.936Z,4.1
2023-03-06T01:00:11.140Z,4.2
2023-03-06T01:01:11.169Z,4.2
2023-03-06T01:03:10.975Z,4.2
2023-03-06T01:04:11.225Z,4.3
2023-03-06T01:05:10.942Z,4.2
2023-03-06T01:06:11.045Z,4.1
2023-03-06T01:07:10.935Z,4.2
2023-03-06T01:08:11.369Z,4.3
2023-03-06T01:09:11.105Z,4.4
2023-03-06T01:11:11.454Z,4.2
2023-03-06T01:12:10.932Z,4.2
2023-03-06T01:13:11.766Z,4.3
2023-03-06T01:14:10.930Z,4
2023-03-06T01:15:11.360Z,4.1
2023-03-06T01:16:10.947Z,4.2
2023-03-06T01:17:10.956Z,4.3
2023-03-06T01:19:10.927Z,4.2
2023-03-06T01:20:11.310Z,4.1
2023-03-06T01:21:11.284Z,4
2023-03-06T01:22:10.961Z,4
2023-03-06T01:24:09.808Z,4.1
2023-03-06T01:26:10.934Z,4.1
2023-03-06T01:27:11.745Z,4.2
2023-03-06T01:28:11.023Z,4.2
2023-03-06T01:29:11.077Z,4.2
2023-03-06T01:30:11.493Z,4.2
2023-03-06T01:32:11.191Z,4.1
2023-03-06T01:33:10.930Z,4.1
2023-03-06T01:35:10.923Z,3.9
2023-03-06T01:36:10.922Z,4.1
2023-03-06T01:37:11.870Z,4
2023-03-06T01:38:11.582Z,4
2023-03-06T01:39:10.932Z,4.1
2023-03-06T01:40:11.671Z,4
2023-03-06T01:41:11.346Z,3.9
2023-03-06T01:42:10.925Z,4.1
2023-03-06T01:43:11.296Z,4.1
2023-03-06T01:44:11.684Z,4
2023-03-06T01:45:09.796Z,3.9
2023-03-06T01:47:10.931Z,3.6
2023-03-06T01:48:11.624Z,3.7
2023-03-06T01:49:11.489Z,3.8
2023-03-06T01:51:10.921Z,3.6
2023-03-06T01:52:11.124Z,3.3
2023-03-06T01:53:11.514Z,3.6
2023-03-06T01:54:11.414Z,3.8
2023-03-06T01:55:10.931Z,3.7
2023-03-06T01:56:11.149Z,3.5
2023-03-06T01:58:11.042Z,3.8
2023-03-06T01:59:11.806Z,3.7
2023-03-06T02:00:11.253Z,3.7
2023-03-06T02:01:11.678Z,3.6
2023-03-06T02:02:10.944Z,3.8
2023-03-06T02:03:11.411Z,3.7
2023-03-06T02:04:10.931Z,3.8
2023-03-06T02:05:11.808Z,3.4
2023-03-06T02:06:10.991Z,3.6
2023-03-06T02:07:10.948Z,3.8
2023-03-06T02:08:09.802Z,3.8
2023-03-06T02:09:11.024Z,4
2023-03-06T02:10:11.194Z,4
2023-03-06T02:12:10.935Z,4
2023-03-06T02:13:11.460Z,4
2023-03-06T02:14:11.284Z,3.9
2023-03-06T02:15:10.932Z,4
2023-03-06T02:16:10.935Z,4
2023-03-06T02:17:11.478Z,3.9
2023-03-06T02:18:10.940Z,3.8
2023-03-06T02:21:10.923Z,3.7
2023-03-06T02:22:10.924Z,3.5
2023-03-06T02:23:11.584Z,3.6
2023-03-06T02:24:10.993Z,3.7
2023-03-06T02:25:11.396Z,3.8
2023-03-06T02:26:11.649Z,3.7
2023-03-06T02:27:10.926Z,3.7
2023-03-06T02:28:10.915Z,3.8
2023-03-06T02:29:11.147Z,3.7
2023-03-06T02:30:11.322Z,3.7
2023-03-06T02:31:11.391Z,3.7
2023-03-06T02:32:09.812Z,3.7
2023-03-06T02:33:10.925Z,3.6
2023-03-06T02:35:10.951Z,3.8
2023-03-06T02:36:11.492Z,3.8
2023-03-06T02:37:11.232Z,3.8
2023-03-06T02:38:10.924Z,3.6
2023-03-06T02:39:09.814Z,3.7
2023-03-06T02:40:09.813Z,3.8
2023-03-06T02:41:09.802Z,3.8
2023-03-06T02:42:12.145Z,3.8
2023-03-06T02:43:10.928Z,3.7
2023-03-06T02:44:10.933Z,3.8
2023-03-06T02:46:11.463Z,3.7
2023-03-06T02:47:10.934Z,3.7
2023-03-06T02:48:10.924Z,3.8
2023-03-06T02:49:10.911Z,3.9
2023-03-06T02:50:11.475Z,3.8
2023-03-06T02:51:10.926Z,3.9
2023-03-06T02:52:11.324Z,3.6
2023-03-06T02:54:10.951Z,3.7
2023-03-06T02:55:11.547Z,3.8
2023-03-06T02:56:11.331Z,3.8
2023-03-06T02:57:11.181Z,3.9
2023-03-06T02:58:10.928Z,3.7
2023-03-06T02:59:11.568Z,3.5
2023-03-06T03:00:11.039Z,3.5
2023-03-06T03:03:10.920Z,3.5
2023-03-06T03:04:10.967Z,3.2
2023-03-06T03:05:10.965Z,3.4
2023-03-06T03:07:10.916Z,3.6
2023-03-06T03:08:10.916Z,3.5
2023-03-06T03:09:10.914Z,3.5
2023-03-06T03:10:11.604Z,3.6
2023-03-06T03:11:10.924Z,3.6
2023-03-06T03:12:10.913Z,3.5
2023-03-06T03:15:11.488Z,3.6
2023-03-06T03:16:11.033Z,3.7
2023-03-06T03:17:11.670Z,3.8
2023-03-06T03:18:11.229Z,3.7
2023-03-06T03:19:11.483Z,3.6
2023-03-06T03:20:10.920Z,3.7
2023-03-06T03:21:11.420Z,3.7
2023-03-06T03:22:11.037Z,3.5
2023-03-06T03:23:11.308Z,3.5
2023-03-06T03:25:10.922Z,3.6
2023-03-06T03:26:11.474Z,3.7
2023-03-06T03:27:10.936Z,3.8
2023-03-06T03:28:10.909Z,3.8
2023-03-06T03:29:11.132Z,3.9
2023-03-06T03:30:10.931Z,3.7
2023-03-06T03:31:11.150Z,3.7
2023-03-06T03:32:10.979Z,3.6
2023-03-06T03:33:11.267Z,3.6
2023-03-06T03:34:09.794Z,3.7
2023-03-06T03:36:10.933Z,3.7
2023-03-06T03:37:10.938Z,3.6
2023-03-06T03:38:10.922Z,3.6
2023-03-06T03:39:10.935Z,3.5
2023-03-06T03:40:11.222Z,3.4
2023-03-06T03:41:10.916Z,3.5
2023-03-06T03:42:10.963Z,3.5
2023-03-06T03:43:11.783Z,3.6
2023-03-06T03:44:10.913Z,3.3
2023-03-06T03:45:11.618Z,3.5
2023-03-06T03:46:11.413Z,3.5
2023-03-06T03:47:11.829Z,3.5
2023-03-06T03:48:11.746Z,3.6
2023-03-06T03:49:11.423Z,3.5
2023-03-06T03:50:11.003Z,3.4
2023-03-06T03:51:10.916Z,3.3
2023-03-06T03:52:10.920Z,3.3
2023-03-06T03:53:11.227Z,3.3
2023-03-06T03:54:11.626Z,3.4
2023-03-06T03:55:11.458Z,3.3
2023-03-06T03:56:11.406Z,3.4
2023-03-06T03:57:10.910Z,3.3
2023-03-06T03:58:11.448Z,3.3
2023-03-06T03:59:10.912Z,3.2
2023-03-06T04:00:10.912Z,3.3
2023-03-06T04:01:10.913Z,3.4
2023-03-06T04:02:10.967Z,3.5
2023-03-06T04:03:11.632Z,3.4
2023-03-06T04:04:10.916Z,3.4
2023-03-06T04:05:10.951Z,3.3
2023-03-06T04:08:10.998Z,3.4
2023-03-06T04:09:11.182Z,3.4
2023-03-06T04:10:10.929Z,3.3
2023-03-06T04:11:11.012Z,3.3
2023-03-06T04:12:11.345Z,3.3
2023-03-06T04:13:11.558Z,3.4
2023-03-06T04:14:11.380Z,3.4
2023-03-06T04:15:11.016Z,3.2
2023-03-06T04:16:10.962Z,3.4
2023-03-06T04:17:11.715Z,3.5
2023-03-06T04:18:11.215Z,3.5
2023-03-06T04:19:11.089Z,3.4
2023-03-06T04:20:11.256Z,3.3
2023-03-06T04:21:11.563Z,3.5
2023-03-06T04:22:11.493Z,3.4
2023-03-06T04:23:10.904Z,3.2
2023-03-06T04:24:11.363Z,3.1
2023-03-06T04:25:11.474Z,3.2
2023-03-06T04:26:11.293Z,3.2
2023-03-06T04:27:11.703Z,3.2
2023-03-06T04:29:10.923Z,3.3
2023-03-06T04:30:11.446Z,3.4
2023-03-06T04:31:11.314Z,3.5
2023-03-06T04:32:10.950Z,3.5
2023-03-06T04:33:11.771Z,3.4
2023-03-06T04:34:12.233Z,3.5
2023-03-06T04:35:11.261Z,3.4
2023-03-06T04:37:10.935Z,3.3
2023-03-06T04:38:10.942Z,3.1
2023-03-06T04:40:11.825Z,3.4
2023-03-06T04:41:11.259Z,3.5
2023-03-06T04:42:10.906Z,3.5
2023-03-06T04:43:10.909Z,3.4
2023-03-06T04:44:10.905Z,2.9
2023-03-06T04:45:11.360Z,2.7
2023-03-06T04:46:10.908Z,3
2023-03-06T04:49:12.025Z,3.2
2023-03-06T04:50:11.852Z,3
2023-03-06T04:51:11.137Z,2.8
2023-03-06T04:52:10.904Z,3
2023-03-06T04:53:11.415Z,2.9
2023-03-06T04:54:11.412Z,3
2023-03-06T04:55:10.951Z,2.9
2023-03-06T04:56:11.503Z,2.9
2023-03-06T04:57:10.904Z,3
2023-03-06T04:58:11.882Z,3.1
2023-03-06T04:59:11.322Z,2.9
2023-03-06T05:00:11.285Z,3
2023-03-06T05:01:11.222Z,3.1
2023-03-06T05:03:11.379Z,3.3
2023-03-06T05:04:11.253Z,3.2
2023-03-06T05:05:11.047Z,3.1
2023-03-06T05:06:10.904Z,3.1
2023-03-06T05:07:10.898Z,3.1
2023-03-06T05:08:11.071Z,3.2
2023-03-06T05:09:11.456Z,3.2
2023-03-06T05:10:10.903Z,3
2023-03-06T05:11:11.730Z,2.9
2023-03-06T05:14:10.902Z,2.8
2023-03-06T05:15:10.911Z,3
2023-03-06T05:16:11.006Z,2.6
2023-03-06T05:17:10.899Z,2.4
2023-03-06T05:18:10.911Z,2.7
2023-03-06T05:19:10.906Z,2.6
2023-03-06T05:21:11.100Z,2.6
2023-03-06T05:22:10.906Z,2.7
2023-03-06T05:23:11.599Z,2.7
2023-03-06T05:24:10.907Z,2.8
2023-03-06T05:25:11.592Z,2.8
2023-03-06T05:26:10.918Z,2.8
2023-03-06T05:27:11.391Z,2.9
2023-03-06T05:28:11.451Z,2.8
2023-03-06T05:29:11.189Z,3.1
2023-03-06T05:30:11.633Z,3
2023-03-06T05:31:11.640Z,3.2
2023-03-06T05:32:11.004Z,3.1
2023-03-06T05:34:11.479Z,3.2
2023-03-06T05:35:10.941Z,3.2
2023-03-06T05:36:10.907Z,3.2
2023-03-06T05:37:11.134Z,3.2
2023-03-06T05:38:10.898Z,3.3
2023-03-06T05:39:10.907Z,3.1
2023-03-06T05:40:11.755Z,3.2
2023-03-06T05:42:11.029Z,3
2023-03-06T05:43:11.556Z,2.7
2023-03-06T05:44:11.179Z,2.8
2023-03-06T05:46:11.220Z,2.8
2023-03-06T05:47:11.407Z,2.7
2023-03-06T05:48:11.533Z,2.7
2023-03-06T05:49:10.904Z,2.9
2023-03-06T05:50:11.107Z,2.5
2023-03-06T05:51:11.627Z,2.7
2023-03-06T05:53:11.841Z,2.7
2023-03-06T05:54:10.909Z,2.5
2023-03-06T05:55:11.261Z,2.6
2023-03-06T05:56:11.155Z,2.8
2023-03-06T05:57:10.935Z,2.8
2023-03-06T05:58:11.115Z,2.9
2023-03-06T05:59:11.202Z,2.9
2023-03-06T06:00:11.401Z,3
2023-03-06T06:01:11.044Z,3
2023-03-06T06:02:11.097Z,3
2023-03-06T06:03:10.936Z,2.9
2023-03-06T06:04:11.043Z,3.1
2023-03-06T06:05:12.984Z,3.2
2023-03-06T06:06:09.776Z,3.2
2023-03-06T06:07:09.789Z,3.3
2023-03-06T06:08:11.561Z,3.2
2023-03-06T06:09:13.788Z,3
2023-03-06T06:10:10.903Z,3.3
2023-03-06T06:11:11.474Z,3.2
2023-03-06T06:12:11.425Z,3.2
2023-03-06T06:14:11.056Z,2.9
2023-03-06T06:15:11.642Z,3.1
2023-03-06T06:16:10.944Z,3
2023-03-06T06:17:10.896Z,3
2023-03-06T06:18:09.784Z,2.8
2023-03-06T06:19:11.654Z,3
2023-03-06T06:20:10.978Z,3
2023-03-06T06:21:11.432Z,3.1
2023-03-06T06:22:11.552Z,2.7
2023-03-06T06:23:11.486Z,2.8
2023-03-06T06:24:10.898Z,2.7
2023-03-06T06:25:10.892Z,2.8
2023-03-06T06:27:11.605Z,2.7
2023-03-06T06:28:11.445Z,2.6
2023-03-06T06:30:10.899Z,2.8
2023-03-06T06:31:10.946Z,2.9
2023-03-06T06:32:10.957Z,2.8
2023-03-06T06:33:11.764Z,2.7
2023-03-06T06:35:11.531Z,2.6
2023-03-06T06:36:10.979Z,2.7
2023-03-06T06:37:10.915Z,2.8
2023-03-06T06:38:11.692Z,2.5
2023-03-06T06:39:09.779Z,2.4
2023-03-06T06:40:11.158Z,2.4
2023-03-06T06:41:35.971Z,2.4
2023-03-06T06:42:30.212Z,2.4
2023-03-06T06:43:11.719Z,2.4
2023-03-06T06:44:11.746Z,2.5
2023-03-06T06:45:10.918Z,2.3
2023-03-06T06:46:41.876Z,2.4
2023-03-06T06:48:11.615Z,2.7
2023-03-06T06:49:10.897Z,2.7
2023-03-06T06:50:09.770Z,2.6
2023-03-06T06:51:10.898Z,2.6
2023-03-06T06:52:10.913Z,2.6
2023-03-06T06:53:10.892Z,2.7
2023-03-06T06:54:11.670Z,2.8
2023-03-06T06:56:11.365Z,2.6
2023-03-06T06:57:10.905Z,2.7
2023-03-06T06:58:11.386Z,3
2023-03-06T06:59:16.486Z,2.7
2023-03-06T07:00:11.371Z,2.7
2023-03-06T07:02:10.888Z,2.8
2023-03-06T07:03:10.992Z,2.9
2023-03-06T07:04:11.651Z,2.7
2023-03-06T07:05:11.217Z,2.8
2023-03-06T07:06:11.409Z,2.9
2023-03-06T07:07:11.773Z,2.9
2023-03-06T07:08:11.547Z,2.9
2023-03-06T07:09:10.888Z,2.9
2023-03-06T07:10:10.908Z,2.6
2023-03-06T07:11:11.106Z,2.9
2023-03-06T07:12:09.776Z,3
2023-03-06T07:13:11.368Z,3.1
2023-03-06T07:15:10.897Z,3.2
2023-03-06T07:16:11.643Z,3.1
2023-03-06T07:17:11.645Z,3
2023-03-06T07:18:11.163Z,3.1
2023-03-06T07:19:10.898Z,3.2
2023-03-06T07:20:11.725Z,3.2
2023-03-06T07:21:11.308Z,3.2
2023-03-06T07:22:11.251Z,3.1
2023-03-06T07:23:10.890Z,3
2023-03-06T07:24:11.119Z,2.9
2023-03-06T07:25:10.897Z,3
2023-03-06T07:26:10.890Z,3
2023-03-06T07:28:10.911Z,3
2023-03-06T07:29:11.296Z,3.3
2023-03-06T07:30:11.524Z,3
2023-03-06T07:31:11.053Z,3.1
2023-03-06T07:32:09.782Z,3.2
2023-03-06T07:36:12.837Z,3
2023-03-06T07:37:10.901Z,3.1
2023-03-06T07:38:11.355Z,3.2
2023-03-06T07:39:10.893Z,3.1
2023-03-06T07:40:10.894Z,3.1
2023-03-06T07:41:10.988Z,3.3
2023-03-06T07:42:09.764Z,3.4
2023-03-06T07:43:19.039Z,3.3
2023-03-06T07:44:10.971Z,3.1
2023-03-06T07:45:09.766Z,3
2023-03-06T07:46:11.013Z,3.1
2023-03-06T07:47:11.552Z,3.1
2023-03-06T07:49:11.584Z,3
2023-03-06T07:50:10.897Z,2.9
2023-03-06T07:51:10.916Z,3
2023-03-06T07:52:10.896Z,3.1
2023-03-06T07:53:11.603Z,3.2
2023-03-06T07:54:11.462Z,3.3
2023-03-06T07:55:11.530Z,3.4
2023-03-06T07:56:09.772Z,3.1
2023-03-06T07:57:10.897Z,3
2023-03-06T07:58:11.357Z,3.2
2023-03-06T07:59:11.787Z,3.4
2023-03-06T08:00:11.436Z,3.3
2023-03-06T08:01:10.920Z,3.2
2023-03-06T08:02:11.086Z,3.4
2023-03-06T08:03:11.504Z,3.2
2023-03-06T08:04:10.950Z,3.2
2023-03-06T08:05:10.990Z,3.5
2023-03-06T08:06:11.545Z,3.3
2023-03-06T08:07:09.777Z,3.4
2023-03-06T08:08:10.888Z,3.5
2023-03-06T08:10:10.941Z,3.6
2023-03-06T08:11:10.935Z,3.7
2023-03-06T08:12:11.403Z,3.8
2023-03-06T08:13:11.742Z,3.8
2023-03-06T08:14:11.397Z,3.8
2023-03-06T08:15:11.430Z,3.6
2023-03-06T08:16:10.946Z,3.5
2023-03-06T08:17:10.896Z,3.7
2023-03-06T08:18:09.762Z,3.7
2023-03-06T08:19:10.884Z,3.2
2023-03-06T08:20:10.910Z,3.6
2023-03-06T08:21:10.899Z,3.8
2023-03-06T08:22:10.894Z,3.8
2023-03-06T08:23:11.492Z,3.6
2023-03-06T08:24:10.884Z,3.6
2023-03-06T08:25:11.106Z,3.5
2023-03-06T08:26:11.117Z,3.4
2023-03-06T08:27:11.784Z,3.6
2023-03-06T08:29:11.440Z,3.8
2023-03-06T08:30:10.889Z,3.9
2023-03-06T08:31:11.834Z,3.9
2023-03-06T08:32:10.959Z,4
2023-03-06T08:33:11.137Z,3.8
2023-03-06T08:35:10.919Z,3.5
2023-03-06T08:36:10.910Z,3.4
2023-03-06T08:37:11.723Z,3.5
2023-03-06T08:38:11.200Z,3.7
2023-03-06T08:42:10.892Z,3.4
2023-03-06T08:43:12.980Z,3.5
2023-03-06T08:45:10.889Z,3.3
2023-03-06T08:46:10.874Z,3.3
2023-03-06T08:47:10.889Z,3.3
2023-03-06T08:48:10.880Z,3.4
2023-03-06T08:50:11.141Z,3.5
2023-03-06T08:52:11.166Z,3.5
2023-03-06T08:53:11.468Z,3.5
2023-03-06T08:54:11.593Z,3.6
2023-03-06T08:55:12.864Z,3.6
2023-03-06T08:56:11.676Z,3.5
2023-03-06T08:57:10.878Z,3.5
2023-03-06T08:58:10.885Z,3.4
2023-03-06T08:59:11.089Z,3.4
2023-03-06T09:00:10.893Z,3.3
2023-03-06T09:01:11.742Z,3.2
2023-03-06T09:03:11.136Z,3.2
2023-03-06T09:04:11.274Z,3.3
2023-03-06T09:05:11.473Z,3.4
2023-03-06T09:06:11.359Z,3.4
2023-03-06T09:07:10.882Z,3.5
2023-03-06T09:08:11.313Z,3.4
2023-03-06T09:09:10.891Z,3.5
2023-03-06T09:11:11.589Z,3.8
2023-03-06T09:12:10.878Z,4
2023-03-06T09:13:09.760Z,4.2
2023-03-06T09:14:10.913Z,4.3
2023-03-06T09:15:11.835Z,4.2
2023-03-06T09:16:11.876Z,4.3
2023-03-06T09:17:10.885Z,4.2
2023-03-06T09:18:11.274Z,3.9
2023-03-06T09:19:10.898Z,3.9
2023-03-06T09:20:11.594Z,3.9
2023-03-06T09:21:11.540Z,4
2023-03-06T09:22:10.883Z,4.1
2023-03-06T09:24:11.083Z,4.1
2023-03-06T09:25:10.884Z,4.2
2023-03-06T09:26:11.279Z,4.1
2023-03-06T09:28:12.352Z,3.9
2023-03-06T09:29:10.891Z,3.7
2023-03-06T09:30:10.896Z,3.7
2023-03-06T09:32:12.168Z,3.9
2023-03-06T09:33:10.902Z,3.8
2023-03-06T09:34:10.989Z,3.9
2023-03-06T09:36:09.769Z,3.7
2023-03-06T09:37:10.881Z,3.6
2023-03-06T09:38:11.753Z,3.7
2023-03-06T09:39:10.889Z,3.7
2023-03-06T09:40:10.998Z,3.8
2023-03-06T09:41:11.204Z,3.6
2023-03-06T09:42:11.436Z,3.7
2023-03-06T09:45:11.388Z,3.9
2023-03-06T09:51:11.648Z,3.6
2023-03-06T09:52:11.769Z,3.6
2023-03-06T09:53:11.812Z,3.6
2023-03-06T09:54:11.494Z,3.6
2023-03-06T09:55:11.232Z,3.7
2023-03-06T10:00:11.225Z,3.9
2023-03-06T10:01:11.288Z,4
2023-03-06T10:03:11.509Z,4.1
2023-03-06T10:06:11.246Z,4
2023-03-06T10:13:11.345Z,4
2023-03-06T10:14:11.566Z,4.1
2023-03-06T10:18:11.384Z,3.9
2023-03-06T10:21:19.123Z,4.4
2023-03-06T10:23:12.111Z,4.4
2023-03-06T10:28:11.281Z,4.6
2023-03-06T10:30:11.305Z,4.7
2023-03-06T10:32:11.452Z,4.9
2023-03-06T10:33:11.431Z,5.1
2023-03-06T10:35:11.303Z,5.4
2023-03-06T10:38:11.724Z,5.8
2023-03-06T10:39:11.303Z,5.9
2023-03-06T10:41:11.295Z,6.1
2023-03-06T10:43:12.393Z,6.5
2023-03-06T10:45:11.274Z,6.5
2023-03-06T10:47:11.445Z,6.3
2023-03-06T10:56:11.608Z,6.4
2023-03-06T11:00:11.258Z,5.9
2023-03-06T11:01:11.502Z,5.8
2023-03-06T11:04:11.299Z,5.7
2023-03-06T11:05:11.444Z,5.8
2023-03-06T11:15:11.688Z,6
2023-03-06T11:18:11.537Z,8.1
2023-03-06T11:19:11.684Z,8.6
2023-03-06T11:25:11.463Z,7.5
2023-03-06T11:26:11.866Z,7.4
2023-03-06T11:28:11.569Z,6.8
2023-03-06T11:29:11.560Z,6.9
2023-03-06T11:31:11.291Z,7.8
2023-03-06T11:32:11.455Z,8.2
2023-03-06T11:34:11.534Z,10.4
2023-03-06T11:40:11.423Z,9.8
2023-03-06T11:49:11.212Z,7.5
2023-03-06T11:50:11.595Z,7.4
2023-03-06T11:53:11.563Z,8.9
2023-03-06T11:54:11.463Z,9.5
2023-03-06T11:58:11.307Z,11
2023-03-06T12:02:11.697Z,11.3
2023-03-06T12:03:11.712Z,11.7
2023-03-06T12:05:11.692Z,12.1
2023-03-06T12:06:11.426Z,11.7
2023-03-06T12:10:11.781Z,10.4
2023-03-06T12:11:11.432Z,10
2023-03-06T12:14:11.442Z,9.4
2023-03-06T12:18:11.434Z,8.5
2023-03-06T12:20:11.373Z,9.4
2023-03-06T12:23:15.347Z,10.1
2023-03-06T12:37:11.064Z,8.3
2023-03-06T12:39:24.882Z,8.3
2023-03-06T12:40:24.494Z,8.2
2023-03-06T12:44:10.861Z,7.9
2023-03-06T12:45:10.916Z,8.3
2023-03-06T12:46:10.930Z,8.7
2023-03-06T12:47:11.807Z,9
2023-03-06T12:48:11.575Z,9.3
2023-03-06T12:49:12.289Z,9.6
2023-03-06T12:50:10.876Z,9.6
2023-03-06T12:51:10.865Z,9.8
2023-03-06T12:52:11.040Z,9.9
2023-03-06T12:53:11.192Z,9.6
2023-03-06T12:54:10.872Z,9.5
2023-03-06T12:55:11.232Z,9.3
2023-03-06T12:56:10.894Z,9
2023-03-06T12:57:10.857Z,8.7
2023-03-06T12:58:11.293Z,8.6
2023-03-06T12:59:10.866Z,8.5
2023-03-06T13:00:11.602Z,8.4
2023-03-06T13:01:11.365Z,8.5
2023-03-06T13:02:11.875Z,9
2023-03-06T13:04:10.872Z,9.9
2023-03-06T13:05:11.379Z,10.3
2023-03-06T13:06:11.153Z,10.4
2023-03-06T13:07:10.873Z,10.5
2023-03-06T13:08:11.054Z,10.5
2023-03-06T13:10:10.896Z,10.5
2023-03-06T13:11:10.988Z,10.3
2023-03-06T13:13:11.341Z,10.5
2023-03-06T13:14:11.651Z,9.6
2023-03-06T13:15:10.880Z,10.1
2023-03-06T13:16:10.866Z,10.6
2023-03-06T13:17:12.169Z,10.7
2023-03-06T13:18:10.917Z,10.8
2023-03-06T13:19:11.586Z,10.9
2023-03-06T13:20:10.870Z,10
2023-03-06T13:21:10.865Z,10.4
2023-03-06T13:22:10.869Z,10.6
2023-03-06T13:23:10.873Z,10.8
2023-03-06T13:24:10.869Z,10.9
2023-03-06T13:25:11.743Z,11
2023-03-06T13:26:11.421Z,11.3
2023-03-06T13:27:10.950Z,11.5
2023-03-06T13:28:10.950Z,11.3
2023-03-06T13:29:10.861Z,11.3
2023-03-06T13:30:11.928Z,10.7
2023-03-06T13:31:24.894Z,11
2023-03-06T13:32:11.376Z,11.1
2023-03-06T13:34:09.734Z,11
2023-03-06T13:38:10.863Z,10.7
2023-03-06T13:39:11.208Z,10.7
2023-03-06T13:40:11.192Z,10.9
2023-03-06T13:41:11.342Z,10.8
2023-03-06T13:42:11.139Z,10.8
2023-03-06T13:43:11.367Z,11.1
2023-03-06T13:44:10.864Z,11
2023-03-06T13:45:11.566Z,10.7
2023-03-06T13:46:10.977Z,10.7
2023-03-06T13:47:11.496Z,11
2023-03-06T13:48:33.740Z,11
2023-03-06T13:49:10.909Z,11.1
2023-03-06T13:50:10.862Z,11.4
2023-03-06T13:51:11.161Z,11.3
2023-03-06T13:52:10.869Z,11.1
2023-03-06T13:53:10.995Z,11.1
2023-03-06T13:55:11.287Z,10.8
2023-03-06T13:56:10.866Z,10.9
2023-03-06T13:57:10.870Z,10.8
2023-03-06T13:58:09.741Z,10.6
2023-03-06T13:59:13.800Z,10.4
2023-03-06T14:00:11.439Z,10.3
2023-03-06T14:01:10.938Z,10
2023-03-06T14:02:11.490Z,10
2023-03-06T14:03:10.861Z,10.2
2023-03-06T14:04:10.860Z,10.3
2023-03-06T14:05:10.863Z,10.2
2023-03-06T14:06:11.426Z,10.1
2023-03-06T14:07:09.733Z,10.1
2023-03-06T14:10:10.986Z,9.8
2023-03-06T14:11:10.906Z,10
2023-03-06T14:12:11.164Z,9.9
2023-03-06T14:13:10.926Z,9.9
2023-03-06T14:14:11.295Z,10.1
2023-03-06T14:15:10.969Z,10.1
2023-03-06T14:16:12.363Z,9.9
2023-03-06T14:17:11.425Z,9.8
2023-03-06T14:18:10.876Z,9.8
2023-03-06T14:19:10.874Z,9.9
2023-03-06T14:21:11.731Z,9.6
2023-03-06T14:22:10.958Z,9.7
2023-03-06T14:23:11.911Z,10
2023-03-06T14:24:11.511Z,10
2023-03-06T14:25:10.855Z,9.9
2023-03-06T14:26:10.855Z,9.6
2023-03-06T14:27:10.861Z,9.5
2023-03-06T14:28:14.297Z,9.5
2023-03-06T14:29:10.869Z,9.6
2023-03-06T14:30:11.603Z,9.6
2023-03-06T14:31:09.790Z,9.7
2023-03-06T14:32:11.528Z,9.9
2023-03-06T14:33:10.862Z,10
2023-03-06T14:34:10.866Z,10.2
2023-03-06T14:35:10.953Z,10.2
2023-03-06T14:36:11.590Z,10.3
2023-03-06T14:37:11.288Z,10.3
2023-03-06T14:38:11.069Z,10.3
2023-03-06T14:39:10.862Z,10.2
2023-03-06T14:40:11.440Z,9.8
2023-03-06T14:41:12.966Z,9.6
2023-03-06T14:42:11.034Z,9.3
2023-03-06T14:43:11.422Z,9.5
2023-03-06T14:44:10.889Z,9.4
2023-03-06T14:45:11.686Z,9.2
2023-03-06T14:46:10.999Z,9.3
2023-03-06T14:47:10.949Z,9.2
2023-03-06T14:48:10.862Z,9.3
2023-03-06T14:49:11.292Z,9.3
2023-03-06T14:50:10.865Z,9
2023-03-06T14:51:11.425Z,9
2023-03-06T14:52:10.863Z,8.8
2023-03-06T14:53:10.882Z,8.7
2023-03-06T14:54:10.862Z,8.6
2023-03-06T14:56:11.601Z,8.4
2023-03-06T14:57:11.958Z,8.4
2023-03-06T14:58:10.859Z,8.3
2023-03-06T14:59:10.872Z,8.1
2023-03-06T15:00:10.857Z,8
2023-03-06T15:01:11.168Z,8.2
2023-03-06T15:04:11.134Z,8.1
2023-03-06T15:05:11.027Z,8.1
2023-03-06T15:06:11.685Z,8.2
2023-03-06T15:08:11.030Z,8.1
2023-03-06T15:09:11.280Z,8.1
2023-03-06T15:10:11.403Z,8.2
2023-03-06T15:11:11.069Z,8.1
2023-03-06T15:12:10.857Z,8
2023-03-06T15:14:09.731Z,7.9
2023-03-06T15:17:10.857Z,7.7
2023-03-06T15:18:10.854Z,7.6
2023-03-06T15:20:11.368Z,7.5
2023-03-06T15:21:11.251Z,7.5
2023-03-06T15:22:10.855Z,7.2
2023-03-06T15:23:11.408Z,7.2
2023-03-06T15:24:10.859Z,6.9
2023-03-06T15:25:11.118Z,7
2023-03-06T15:28:11.219Z,6.5
2023-03-06T15:30:11.245Z,6.2
2023-03-06T15:31:11.498Z,5.9
2023-03-06T15:32:11.382Z,5.7
2023-03-06T15:33:10.850Z,5.5
2023-03-06T15:34:11.320Z,5.5
2023-03-06T15:35:09.735Z,5.4
2023-03-06T15:36:11.475Z,5.5
2023-03-06T15:38:11.046Z,5.3
2023-03-06T15:39:10.866Z,5.3
2023-03-06T15:40:11.580Z,5.3
2023-03-06T15:41:11.165Z,5.1
2023-03-06T15:42:10.854Z,5.2
2023-03-06T15:43:10.870Z,5.3
2023-03-06T15:44:11.521Z,5.3
2023-03-06T15:45:10.859Z,5.3
2023-03-06T15:46:11.629Z,5.4
2023-03-06T15:47:10.863Z,5.4
2023-03-06T15:49:10.872Z,5.5
2023-03-06T15:51:11.400Z,5.6
2023-03-06T15:52:11.718Z,5.7
2023-03-06T15:53:11.397Z,5.6
2023-03-06T15:54:12.629Z,5.6
2023-03-06T15:55:10.851Z,5.7
2023-03-06T15:56:10.858Z,5.8
2023-03-06T15:57:10.861Z,5.9
2023-03-06T15:58:10.951Z,5.9
2023-03-06T16:00:21.781Z,5.8
2023-03-06T16:01:10.922Z,5.8
2023-03-06T16:02:11.774Z,5.7
2023-03-06T16:03:10.856Z,5.8
2023-03-06T16:04:11.632Z,5.7
2023-03-06T16:06:10.848Z,5.6
2023-03-06T16:07:10.857Z,5.7
2023-03-06T16:08:11.094Z,5.7
2023-03-06T16:09:10.980Z,5.5
2023-03-06T16:10:10.927Z,5.6
2023-03-06T16:12:11.513Z,5.6
2023-03-06T16:13:11.037Z,5.6
2023-03-06T16:14:10.852Z,5.6
2023-03-06T16:15:10.984Z,5.8
2023-03-06T16:16:11.166Z,5.7
2023-03-06T16:17:10.879Z,5.7
2023-03-06T16:18:11.197Z,5.6
2023-03-06T16:19:20.317Z,5.7
2023-03-06T16:22:10.865Z,5.9
2023-03-06T16:23:11.741Z,5.8
2023-03-06T16:24:10.936Z,5.9
2023-03-06T16:25:11.394Z,5.8
2023-03-06T16:26:10.849Z,5.7
2023-03-06T16:27:10.844Z,5.8
2023-03-06T16:28:11.522Z,5.8
2023-03-06T16:29:11.681Z,5.7
2023-03-06T16:31:11.582Z,5.6
2023-03-06T16:32:11.389Z,5.7
2023-03-06T16:33:09.773Z,5.6
2023-03-06T16:34:10.867Z,5.6
2023-03-06T16:35:11.036Z,5.6
2023-03-06T16:36:11.337Z,5.5
2023-03-06T16:37:10.844Z,5.4
2023-03-06T16:38:11.355Z,5.4
2023-03-06T16:39:11.691Z,5.5
2023-03-06T16:40:11.760Z,5.4
2023-03-06T16:41:10.846Z,5.6
2023-03-06T16:42:10.857Z,5.3
2023-03-06T16:43:11.093Z,5.4
2023-03-06T16:45:11.485Z,5.4
2023-03-06T16:46:11.101Z,5.4
2023-03-06T16:47:11.238Z,5.4
2023-03-06T16:48:11.753Z,5.5
2023-03-06T16:49:11.241Z,5.4
2023-03-06T16:50:10.849Z,5.4
2023-03-06T16:51:10.847Z,5.2
2023-03-06T16:52:11.447Z,5
2023-03-06T16:53:11.729Z,5
2023-03-06T16:54:10.863Z,4.9
2023-03-06T16:55:09.763Z,4.9
2023-03-06T16:56:11.160Z,4.8
2023-03-06T16:57:10.854Z,4.7
2023-03-06T16:58:11.160Z,4.5
2023-03-06T16:59:10.873Z,4.6
2023-03-06T17:00:10.856Z,4.4
2023-03-06T17:01:10.875Z,4.5
2023-03-06T17:02:11.236Z,4.4
2023-03-06T17:03:10.856Z,4.5
2023-03-06T17:04:11.111Z,4.4
2023-03-06T17:06:10.848Z,4.4
2023-03-06T17:07:10.856Z,4.4
2023-03-06T17:08:11.389Z,4.4
2023-03-06T17:09:10.885Z,4.3
2023-03-06T17:10:11.393Z,4.3
2023-03-06T17:11:10.867Z,4.3
2023-03-06T17:12:10.857Z,4.3
2023-03-06T17:13:10.866Z,4.3
2023-03-06T17:14:11.287Z,4.3
2023-03-06T17:15:09.720Z,4.4
2023-03-06T17:17:09.718Z,4.3
2023-03-06T17:18:10.839Z,4.4
2023-03-06T17:19:11.555Z,4.3
2023-03-06T17:20:11.094Z,4.3
2023-03-06T17:21:11.088Z,4.4
2023-03-06T17:22:11.371Z,4.3
2023-03-06T17:24:12.081Z,4.4
2023-03-06T17:25:11.544Z,4.4
2023-03-06T17:26:10.844Z,4.5
2023-03-06T17:27:11.034Z,4.5
2023-03-06T17:28:09.721Z,4.4
2023-03-06T17:29:11.578Z,4.4
2023-03-06T17:30:11.363Z,4.4
2023-03-06T17:31:11.144Z,4.4
2023-03-06T17:32:10.266Z,4.4
2023-03-06T17:33:10.868Z,4.4
2023-03-06T17:34:11.417Z,4.5
2023-03-06T17:35:10.891Z,4.3
2023-03-06T17:36:10.846Z,4.2